sensor_id;sensor_type;location;lat;lon;timestamp;P1;durP1;ratioP1;P2;durP2;ratioP2
15603;SDS011;7902;49.042;9.092;2023-09-12T00:02:09;25.17;;;7.23;;
15603;SDS011;7902;49.042;9.092;2023-09-12T00:04:35;32.50;;;6.80;;
15603;SDS011;7902;49.042;9.092;2023-09-12T00:07:01;42.33;;;8.03;;
15603;SDS011;7902;49.042;9.092;2023-09-12T00:09:27;30.37;;;6.90;;
15603;SDS011;7902;49.042;9.092;2023-09-12T00:11:53;28.33;;;7.07;;
15603;SDS011;7902;49.042;9.092;2023-09-12T00:14:20;30.80;;;7.20;;
15603;SDS011;7902;49.042;9.092;2023-09-12T00:16:46;56.07;;;7.37;;
15603;SDS011;7902;49.042;9.092;2023-09-12T00:19:12;26.10;;;6.23;;
15603;SDS011;7902;49.042;9.092;2023-09-12T00:21:38;37.60;;;8.47;;
15603;SDS011;7902;49.042;9.092;2023-09-12T00:24:04;32.20;;;7.47;;
15603;SDS011;7902;49.042;9.092;2023-09-12T00:26:30;28.53;;;7.80;;
15603;SDS011;7902;49.042;9.092;2023-09-12T00:28:56;27.83;;;7.40;;
15603;SDS011;7902;49.042;9.092;2023-09-12T00:31:22;26.97;;;7.70;;
15603;SDS011;7902;49.042;9.092;2023-09-12T00:33:48;27.50;;;8.03;;
15603;SDS011;7902;49.042;9.092;2023-09-12T00:36:14;39.17;;;6.70;;
15603;SDS011;7902;49.042;9.092;2023-09-12T00:38:40;38.23;;;7.30;;
15603;SDS011;7902;49.042;9.092;2023-09-12T00:41:06;26.43;;;6.97;;
15603;SDS011;7902;49.042;9.092;2023-09-12T00:43:32;27.80;;;7.40;;
15603;SDS011;7902;49.042;9.092;2023-09-12T00:45:57;29.73;;;7.17;;
15603;SDS011;7902;49.042;9.092;2023-09-12T00:48:23;39.43;;;8.40;;
15603;SDS011;7902;49.042;9.092;2023-09-12T00:50:50;27.57;;;7.40;;
15603;SDS011;7902;49.042;9.092;2023-09-12T00:53:17;30.93;;;7.27;;
15603;SDS011;7902;49.042;9.092;2023-09-12T00:55:46;29.77;;;7.00;;
15603;SDS011;7902;49.042;9.092;2023-09-12T00:58:17;40.43;;;8.57;;
15603;SDS011;7902;49.042;9.092;2023-09-12T01:00:43;24.77;;;7.20;;
15603;SDS011;7902;49.042;9.092;2023-09-12T01:03:09;31.97;;;7.60;;
15603;SDS011;7902;49.042;9.092;2023-09-12T01:05:35;33.57;;;7.10;;
15603;SDS011;7902;49.042;9.092;2023-09-12T01:08:01;27.37;;;7.67;;
15603;SDS011;7902;49.042;9.092;2023-09-12T01:10:27;28.10;;;7.23;;
15603;SDS011;7902;49.042;9.092;2023-09-12T01:12:53;24.57;;;7.40;;
15603;SDS011;7902;49.042;9.092;2023-09-12T01:15:19;31.57;;;8.60;;
15603;SDS011;7902;49.042;9.092;2023-09-12T01:17:45;32.27;;;9.07;;
15603;SDS011;7902;49.042;9.092;2023-09-12T01:20:14;30.60;;;7.20;;
15603;SDS011;7902;49.042;9.092;2023-09-12T01:26:02;27.90;;;6.80;;
15603;SDS011;7902;49.042;9.092;2023-09-12T01:28:43;34.60;;;8.17;;
15603;SDS011;7902;49.042;9.092;2023-09-12T01:31:10;33.53;;;8.53;;
15603;SDS011;7902;49.042;9.092;2023-09-12T01:33:39;33.07;;;8.40;;
15603;SDS011;7902;49.042;9.092;2023-09-12T01:36:05;32.47;;;8.50;;
15603;SDS011;7902;49.042;9.092;2023-09-12T01:38:31;35.47;;;8.67;;
15603;SDS011;7902;49.042;9.092;2023-09-12T01:40:57;40.10;;;8.43;;
15603;SDS011;7902;49.042;9.092;2023-09-12T01:43:24;27.73;;;8.10;;
15603;SDS011;7902;49.042;9.092;2023-09-12T01:45:52;33.00;;;9.00;;
15603;SDS011;7902;49.042;9.092;2023-09-12T01:48:21;30.40;;;7.47;;
15603;SDS011;7902;49.042;9.092;2023-09-12T01:50:50;33.50;;;6.77;;
15603;SDS011;7902;49.042;9.092;2023-09-12T01:53:16;30.43;;;8.73;;
15603;SDS011;7902;49.042;9.092;2023-09-12T01:55:43;28.93;;;7.63;;
15603;SDS011;7902;49.042;9.092;2023-09-12T01:58:13;42.73;;;7.83;;
15603;SDS011;7902;49.042;9.092;2023-09-12T02:00:40;33.00;;;8.00;;
15603;SDS011;7902;49.042;9.092;2023-09-12T02:03:06;29.83;;;7.90;;
15603;SDS011;7902;49.042;9.092;2023-09-12T02:05:32;25.33;;;7.43;;
15603;SDS011;7902;49.042;9.092;2023-09-12T02:07:59;24.17;;;7.93;;
15603;SDS011;7902;49.042;9.092;2023-09-12T02:10:27;32.23;;;7.80;;
15603;SDS011;7902;49.042;9.092;2023-09-12T02:12:53;31.90;;;8.90;;
15603;SDS011;7902;49.042;9.092;2023-09-12T02:15:19;32.20;;;7.93;;
15603;SDS011;7902;49.042;9.092;2023-09-12T02:17:45;30.77;;;8.73;;
15603;SDS011;7902;49.042;9.092;2023-09-12T02:20:11;40.03;;;7.80;;
15603;SDS011;7902;49.042;9.092;2023-09-12T02:22:37;37.07;;;7.77;;
15603;SDS011;7902;49.042;9.092;2023-09-12T02:25:03;32.90;;;8.10;;
15603;SDS011;7902;49.042;9.092;2023-09-12T02:27:30;27.77;;;7.43;;
15603;SDS011;7902;49.042;9.092;2023-09-12T02:29:56;31.80;;;8.27;;
15603;SDS011;7902;49.042;9.092;2023-09-12T02:32:22;40.40;;;7.80;;
15603;SDS011;7902;49.042;9.092;2023-09-12T02:34:48;30.10;;;8.80;;
15603;SDS011;7902;49.042;9.092;2023-09-12T02:37:14;32.10;;;8.13;;
15603;SDS011;7902;49.042;9.092;2023-09-12T02:39:41;31.40;;;7.80;;
15603;SDS011;7902;49.042;9.092;2023-09-12T02:42:07;25.77;;;7.30;;
15603;SDS011;7902;49.042;9.092;2023-09-12T02:44:33;30.70;;;7.60;;
15603;SDS011;7902;49.042;9.092;2023-09-12T02:46:59;26.70;;;8.53;;
15603;SDS011;7902;49.042;9.092;2023-09-12T02:49:25;28.17;;;7.70;;
15603;SDS011;7902;49.042;9.092;2023-09-12T02:51:50;34.70;;;8.07;;
15603;SDS011;7902;49.042;9.092;2023-09-12T02:54:16;24.83;;;7.27;;
15603;SDS011;7902;49.042;9.092;2023-09-12T02:56:42;26.20;;;7.43;;
15603;SDS011;7902;49.042;9.092;2023-09-12T02:59:08;27.97;;;7.83;;
15603;SDS011;7902;49.042;9.092;2023-09-12T03:01:34;28.53;;;8.47;;
15603;SDS011;7902;49.042;9.092;2023-09-12T03:04:00;40.53;;;8.63;;
15603;SDS011;7902;49.042;9.092;2023-09-12T03:06:26;34.40;;;8.53;;
15603;SDS011;7902;49.042;9.092;2023-09-12T03:08:53;30.67;;;7.30;;
15603;SDS011;7902;49.042;9.092;2023-09-12T03:11:19;29.87;;;8.67;;
15603;SDS011;7902;49.042;9.092;2023-09-12T03:13:45;34.07;;;7.87;;
15603;SDS011;7902;49.042;9.092;2023-09-12T03:16:12;36.13;;;7.53;;
15603;SDS011;7902;49.042;9.092;2023-09-12T03:18:38;25.60;;;7.53;;
15603;SDS011;7902;49.042;9.092;2023-09-12T03:21:04;30.30;;;6.73;;
15603;SDS011;7902;49.042;9.092;2023-09-12T03:23:31;40.40;;;7.30;;
15603;SDS011;7902;49.042;9.092;2023-09-12T03:26:03;30.80;;;8.00;;
15603;SDS011;7902;49.042;9.092;2023-09-12T03:28:30;31.23;;;7.50;;
15603;SDS011;7902;49.042;9.092;2023-09-12T03:31:06;31.63;;;7.70;;
15603;SDS011;7902;49.042;9.092;2023-09-12T03:33:34;27.60;;;8.03;;
15603;SDS011;7902;49.042;9.092;2023-09-12T03:36:00;23.27;;;6.60;;
15603;SDS011;7902;49.042;9.092;2023-09-12T03:38:26;28.83;;;7.50;;
15603;SDS011;7902;49.042;9.092;2023-09-12T03:40:52;33.30;;;8.77;;
15603;SDS011;7902;49.042;9.092;2023-09-12T03:43:18;34.80;;;7.67;;
15603;SDS011;7902;49.042;9.092;2023-09-12T03:45:43;31.83;;;7.70;;
15603;SDS011;7902;49.042;9.092;2023-09-12T03:48:09;29.00;;;7.60;;
15603;SDS011;7902;49.042;9.092;2023-09-12T03:50:35;32.17;;;7.70;;
15603;SDS011;7902;49.042;9.092;2023-09-12T03:53:01;27.20;;;6.83;;
15603;SDS011;7902;49.042;9.092;2023-09-12T03:55:27;34.10;;;7.20;;
15603;SDS011;7902;49.042;9.092;2023-09-12T03:57:53;30.40;;;7.93;;
15603;SDS011;7902;49.042;9.092;2023-09-12T04:00:19;30.37;;;8.00;;
15603;SDS011;7902;49.042;9.092;2023-09-12T04:02:45;24.73;;;6.50;;
15603;SDS011;7902;49.042;9.092;2023-09-12T04:05:11;31.53;;;7.77;;
15603;SDS011;7902;49.042;9.092;2023-09-12T04:07:36;25.43;;;6.90;;
15603;SDS011;7902;49.042;9.092;2023-09-12T04:10:02;31.00;;;7.57;;
15603;SDS011;7902;49.042;9.092;2023-09-12T04:12:29;26.03;;;7.47;;
15603;SDS011;7902;49.042;9.092;2023-09-12T04:14:55;28.90;;;7.40;;
15603;SDS011;7902;49.042;9.092;2023-09-12T04:17:20;24.67;;;6.80;;
15603;SDS011;7902;49.042;9.092;2023-09-12T04:19:46;39.07;;;7.80;;
15603;SDS011;7902;49.042;9.092;2023-09-12T04:22:13;27.07;;;7.70;;
15603;SDS011;7902;49.042;9.092;2023-09-12T04:24:39;26.60;;;6.83;;
15603;SDS011;7902;49.042;9.092;2023-09-12T04:27:05;30.30;;;7.83;;
15603;SDS011;7902;49.042;9.092;2023-09-12T04:29:32;28.77;;;7.73;;
15603;SDS011;7902;49.042;9.092;2023-09-12T04:32:03;37.13;;;7.10;;
15603;SDS011;7902;49.042;9.092;2023-09-12T04:34:30;35.27;;;7.60;;
15603;SDS011;7902;49.042;9.092;2023-09-12T04:36:56;37.70;;;7.23;;
15603;SDS011;7902;49.042;9.092;2023-09-12T04:39:22;30.70;;;7.00;;
15603;SDS011;7902;49.042;9.092;2023-09-12T04:41:48;34.10;;;6.90;;
15603;SDS011;7902;49.042;9.092;2023-09-12T04:44:14;43.33;;;8.17;;
15603;SDS011;7902;49.042;9.092;2023-09-12T04:46:40;30.00;;;7.10;;
15603;SDS011;7902;49.042;9.092;2023-09-12T04:49:06;27.60;;;7.10;;
15603;SDS011;7902;49.042;9.092;2023-09-12T04:51:32;26.27;;;6.70;;
15603;SDS011;7902;49.042;9.092;2023-09-12T04:53:58;28.80;;;7.10;;
15603;SDS011;7902;49.042;9.092;2023-09-12T04:56:24;25.53;;;7.00;;
15603;SDS011;7902;49.042;9.092;2023-09-12T04:58:50;30.90;;;7.00;;
15603;SDS011;7902;49.042;9.092;2023-09-12T05:01:16;24.03;;;6.27;;
15603;SDS011;7902;49.042;9.092;2023-09-12T05:03:42;27.03;;;6.33;;
15603;SDS011;7902;49.042;9.092;2023-09-12T05:06:09;34.00;;;6.80;;
15603;SDS011;7902;49.042;9.092;2023-09-12T05:08:36;40.93;;;7.37;;
15603;SDS011;7902;49.042;9.092;2023-09-12T05:11:02;25.23;;;6.60;;
15603;SDS011;7902;49.042;9.092;2023-09-12T05:13:30;26.80;;;6.80;;
15603;SDS011;7902;49.042;9.092;2023-09-12T05:15:56;33.63;;;7.20;;
15603;SDS011;7902;49.042;9.092;2023-09-12T05:18:22;30.20;;;8.17;;
15603;SDS011;7902;49.042;9.092;2023-09-12T05:20:49;28.27;;;6.97;;
15603;SDS011;7902;49.042;9.092;2023-09-12T05:23:15;31.20;;;7.47;;
15603;SDS011;7902;49.042;9.092;2023-09-12T05:25:41;43.20;;;7.07;;
15603;SDS011;7902;49.042;9.092;2023-09-12T05:28:06;30.07;;;6.73;;
15603;SDS011;7902;49.042;9.092;2023-09-12T05:30:32;36.43;;;6.20;;
15603;SDS011;7902;49.042;9.092;2023-09-12T05:32:58;28.30;;;6.90;;
15603;SDS011;7902;49.042;9.092;2023-09-12T05:35:24;30.13;;;7.80;;
15603;SDS011;7902;49.042;9.092;2023-09-12T05:37:50;31.60;;;6.70;;
15603;SDS011;7902;49.042;9.092;2023-09-12T05:40:17;26.10;;;6.63;;
15603;SDS011;7902;49.042;9.092;2023-09-12T05:42:44;35.63;;;7.50;;
15603;SDS011;7902;49.042;9.092;2023-09-12T05:45:10;26.27;;;6.87;;
15603;SDS011;7902;49.042;9.092;2023-09-12T05:47:36;36.00;;;6.80;;
15603;SDS011;7902;49.042;9.092;2023-09-12T05:50:02;33.37;;;7.70;;
15603;SDS011;7902;49.042;9.092;2023-09-12T05:52:31;33.90;;;7.77;;
15603;SDS011;7902;49.042;9.092;2023-09-12T05:54:57;30.53;;;7.17;;
15603;SDS011;7902;49.042;9.092;2023-09-12T05:57:23;31.23;;;6.90;;
15603;SDS011;7902;49.042;9.092;2023-09-12T05:59:49;35.63;;;7.30;;
15603;SDS011;7902;49.042;9.092;2023-09-12T06:02:15;26.63;;;5.90;;
15603;SDS011;7902;49.042;9.092;2023-09-12T06:04:43;32.63;;;6.57;;
15603;SDS011;7902;49.042;9.092;2023-09-12T06:07:09;30.87;;;7.47;;
15603;SDS011;7902;49.042;9.092;2023-09-12T06:09:35;27.80;;;7.90;;
15603;SDS011;7902;49.042;9.092;2023-09-12T06:12:01;28.93;;;7.87;;
15603;SDS011;7902;49.042;9.092;2023-09-12T06:14:27;29.07;;;7.80;;
15603;SDS011;7902;49.042;9.092;2023-09-12T06:16:53;36.37;;;6.57;;
15603;SDS011;7902;49.042;9.092;2023-09-12T06:19:19;32.30;;;6.97;;
15603;SDS011;7902;49.042;9.092;2023-09-12T06:21:45;29.80;;;7.10;;
15603;SDS011;7902;49.042;9.092;2023-09-12T06:24:12;25.37;;;7.20;;
15603;SDS011;7902;49.042;9.092;2023-09-12T06:26:42;31.07;;;7.87;;
15603;SDS011;7902;49.042;9.092;2023-09-12T06:29:09;29.17;;;7.13;;
15603;SDS011;7902;49.042;9.092;2023-09-12T06:31:35;31.30;;;6.77;;
15603;SDS011;7902;49.042;9.092;2023-09-12T06:34:01;26.23;;;6.30;;
15603;SDS011;7902;49.042;9.092;2023-09-12T06:36:28;38.37;;;6.70;;
15603;SDS011;7902;49.042;9.092;2023-09-12T06:38:57;29.03;;;7.77;;
15603;SDS011;7902;49.042;9.092;2023-09-12T06:41:23;29.07;;;6.17;;
15603;SDS011;7902;49.042;9.092;2023-09-12T06:43:49;39.03;;;7.17;;
15603;SDS011;7902;49.042;9.092;2023-09-12T06:46:15;34.83;;;7.00;;
15603;SDS011;7902;49.042;9.092;2023-09-12T06:48:46;27.23;;;6.70;;
15603;SDS011;7902;49.042;9.092;2023-09-12T06:51:12;30.77;;;7.00;;
15603;SDS011;7902;49.042;9.092;2023-09-12T06:53:38;32.83;;;7.17;;
15603;SDS011;7902;49.042;9.092;2023-09-12T06:56:04;33.37;;;7.93;;
15603;SDS011;7902;49.042;9.092;2023-09-12T06:58:31;28.63;;;6.83;;
15603;SDS011;7902;49.042;9.092;2023-09-12T07:01:01;28.00;;;6.83;;
15603;SDS011;7902;49.042;9.092;2023-09-12T07:03:36;36.27;;;7.70;;
15603;SDS011;7902;49.042;9.092;2023-09-12T07:06:02;25.20;;;6.60;;
15603;SDS011;7902;49.042;9.092;2023-09-12T07:08:32;24.93;;;6.97;;
15603;SDS011;7902;49.042;9.092;2023-09-12T07:10:58;31.20;;;7.80;;
15603;SDS011;7902;49.042;9.092;2023-09-12T07:13:31;31.00;;;7.20;;
15603;SDS011;7902;49.042;9.092;2023-09-12T07:15:58;37.97;;;7.80;;
15603;SDS011;7902;49.042;9.092;2023-09-12T07:18:24;26.17;;;6.37;;
15603;SDS011;7902;49.042;9.092;2023-09-12T07:20:57;34.03;;;6.67;;
15603;SDS011;7902;49.042;9.092;2023-09-12T07:23:24;27.00;;;6.33;;
15603;SDS011;7902;49.042;9.092;2023-09-12T07:25:49;31.03;;;6.57;;
15603;SDS011;7902;49.042;9.092;2023-09-12T07:28:16;31.30;;;7.70;;
15603;SDS011;7902;49.042;9.092;2023-09-12T07:30:45;32.43;;;7.23;;
15603;SDS011;7902;49.042;9.092;2023-09-12T07:33:12;35.40;;;7.67;;
15603;SDS011;7902;49.042;9.092;2023-09-12T07:35:38;26.03;;;7.10;;
15603;SDS011;7902;49.042;9.092;2023-09-12T07:38:04;29.40;;;7.23;;
15603;SDS011;7902;49.042;9.092;2023-09-12T07:40:30;32.23;;;7.70;;
15603;SDS011;7902;49.042;9.092;2023-09-12T07:42:56;31.67;;;7.30;;
15603;SDS011;7902;49.042;9.092;2023-09-12T07:45:22;33.13;;;7.17;;
15603;SDS011;7902;49.042;9.092;2023-09-12T07:47:47;32.93;;;7.90;;
15603;SDS011;7902;49.042;9.092;2023-09-12T07:50:14;27.50;;;6.73;;
15603;SDS011;7902;49.042;9.092;2023-09-12T07:52:40;30.37;;;7.30;;
15603;SDS011;7902;49.042;9.092;2023-09-12T07:55:07;29.93;;;7.40;;
15603;SDS011;7902;49.042;9.092;2023-09-12T07:57:33;30.80;;;7.03;;
15603;SDS011;7902;49.042;9.092;2023-09-12T08:00:00;38.00;;;8.60;;
15603;SDS011;7902;49.042;9.092;2023-09-12T08:02:27;31.30;;;5.80;;
15603;SDS011;7902;49.042;9.092;2023-09-12T08:04:53;38.43;;;7.70;;
15603;SDS011;7902;49.042;9.092;2023-09-12T08:07:19;33.80;;;7.33;;
15603;SDS011;7902;49.042;9.092;2023-09-12T08:12:18;30.53;;;6.97;;
15603;SDS011;7902;49.042;9.092;2023-09-12T08:14:45;31.20;;;7.83;;
15603;SDS011;7902;49.042;9.092;2023-09-12T08:17:12;33.27;;;7.40;;
15603;SDS011;7902;49.042;9.092;2023-09-12T08:19:39;35.00;;;7.27;;
15603;SDS011;7902;49.042;9.092;2023-09-12T08:22:05;26.50;;;6.30;;
15603;SDS011;7902;49.042;9.092;2023-09-12T08:24:33;37.40;;;7.47;;
15603;SDS011;7902;49.042;9.092;2023-09-12T08:27:00;30.73;;;6.40;;
15603;SDS011;7902;49.042;9.092;2023-09-12T08:29:27;28.43;;;6.87;;
15603;SDS011;7902;49.042;9.092;2023-09-12T08:31:53;42.63;;;7.07;;
15603;SDS011;7902;49.042;9.092;2023-09-12T08:34:20;26.80;;;6.10;;
15603;SDS011;7902;49.042;9.092;2023-09-12T08:36:46;34.70;;;6.82;;
15603;SDS011;7902;49.042;9.092;2023-09-12T08:39:14;30.35;;;6.43;;
15603;SDS011;7902;49.042;9.092;2023-09-12T08:41:42;38.30;;;7.10;;
15603;SDS011;7902;49.042;9.092;2023-09-12T08:44:08;36.37;;;7.00;;
15603;SDS011;7902;49.042;9.092;2023-09-12T08:46:35;32.42;;;6.70;;
15603;SDS011;7902;49.042;9.092;2023-09-12T08:49:03;25.13;;;6.97;;
15603;SDS011;7902;49.042;9.092;2023-09-12T08:51:31;30.08;;;5.95;;
15603;SDS011;7902;49.042;9.092;2023-09-12T08:53:57;25.17;;;5.88;;
15603;SDS011;7902;49.042;9.092;2023-09-12T08:56:25;29.33;;;6.55;;
15603;SDS011;7902;49.042;9.092;2023-09-12T08:58:51;38.40;;;6.68;;
15603;SDS011;7902;49.042;9.092;2023-09-12T09:01:18;27.08;;;6.38;;
15603;SDS011;7902;49.042;9.092;2023-09-12T09:03:45;21.83;;;5.28;;
15603;SDS011;7902;49.042;9.092;2023-09-12T09:06:12;29.25;;;5.88;;
15603;SDS011;7902;49.042;9.092;2023-09-12T09:08:40;31.65;;;6.97;;
15603;SDS011;7902;49.042;9.092;2023-09-12T09:11:08;24.80;;;6.72;;
15603;SDS011;7902;49.042;9.092;2023-09-12T09:13:36;25.15;;;6.55;;
15603;SDS011;7902;49.042;9.092;2023-09-12T09:16:11;34.35;;;6.85;;
15603;SDS011;7902;49.042;9.092;2023-09-12T09:21:21;34.22;;;6.70;;
15603;SDS011;7902;49.042;9.092;2023-09-12T09:23:52;25.20;;;6.15;;
15603;SDS011;7902;49.042;9.092;2023-09-12T09:26:19;27.05;;;6.90;;
15603;SDS011;7902;49.042;9.092;2023-09-12T09:28:45;28.08;;;6.35;;
15603;SDS011;7902;49.042;9.092;2023-09-12T09:31:12;30.27;;;6.55;;
15603;SDS011;7902;49.042;9.092;2023-09-12T09:33:39;30.67;;;7.05;;
15603;SDS011;7902;49.042;9.092;2023-09-12T09:36:06;32.72;;;6.40;;
15603;SDS011;7902;49.042;9.092;2023-09-12T09:38:34;33.42;;;6.78;;
15603;SDS011;7902;49.042;9.092;2023-09-12T09:41:03;31.25;;;6.22;;
15603;SDS011;7902;49.042;9.092;2023-09-12T09:43:30;31.73;;;7.15;;
15603;SDS011;7902;49.042;9.092;2023-09-12T09:45:57;33.70;;;6.25;;
15603;SDS011;7902;49.042;9.092;2023-09-12T09:48:24;32.53;;;5.63;;
15603;SDS011;7902;49.042;9.092;2023-09-12T09:50:52;36.53;;;6.20;;
15603;SDS011;7902;49.042;9.092;2023-09-12T09:53:31;32.53;;;6.43;;
15603;SDS011;7902;49.042;9.092;2023-09-12T09:56:08;32.55;;;5.85;;
15603;SDS011;7902;49.042;9.092;2023-09-12T09:58:36;25.08;;;6.28;;
15603;SDS011;7902;49.042;9.092;2023-09-12T10:01:12;28.67;;;6.25;;
15603;SDS011;7902;49.042;9.092;2023-09-12T10:03:42;31.92;;;6.13;;
15603;SDS011;7902;49.042;9.092;2023-09-12T10:06:10;28.00;;;5.75;;
15603;SDS011;7902;49.042;9.092;2023-09-12T10:08:36;40.40;;;5.85;;
15603;SDS011;7902;49.042;9.092;2023-09-12T10:11:06;29.88;;;6.30;;
15603;SDS011;7902;49.042;9.092;2023-09-12T10:13:33;28.27;;;6.03;;
15603;SDS011;7902;49.042;9.092;2023-09-12T10:16:03;33.25;;;5.88;;
15603;SDS011;7902;49.042;9.092;2023-09-12T10:18:32;27.90;;;6.13;;
15603;SDS011;7902;49.042;9.092;2023-09-12T10:21:07;27.33;;;6.72;;
15603;SDS011;7902;49.042;9.092;2023-09-12T10:23:38;36.30;;;6.40;;
15603;SDS011;7902;49.042;9.092;2023-09-12T10:26:13;42.40;;;6.28;;
15603;SDS011;7902;49.042;9.092;2023-09-12T10:28:40;36.28;;;7.15;;
15603;SDS011;7902;49.042;9.092;2023-09-12T10:31:07;31.75;;;6.25;;
15603;SDS011;7902;49.042;9.092;2023-09-12T10:33:34;26.52;;;6.30;;
15603;SDS011;7902;49.042;9.092;2023-09-12T10:36:05;27.10;;;6.28;;
15603;SDS011;7902;49.042;9.092;2023-09-12T10:38:34;24.42;;;5.80;;
15603;SDS011;7902;49.042;9.092;2023-09-12T10:41:05;30.58;;;6.90;;
15603;SDS011;7902;49.042;9.092;2023-09-12T10:43:34;27.80;;;6.43;;
15603;SDS011;7902;49.042;9.092;2023-09-12T10:46:01;31.80;;;6.65;;
15603;SDS011;7902;49.042;9.092;2023-09-12T10:48:29;35.38;;;6.03;;
15603;SDS011;7902;49.042;9.092;2023-09-12T10:50:58;31.15;;;6.47;;
15603;SDS011;7902;49.042;9.092;2023-09-12T10:53:26;34.10;;;6.03;;
15603;SDS011;7902;49.042;9.092;2023-09-12T10:56:38;26.02;;;5.72;;
15603;SDS011;7902;49.042;9.092;2023-09-12T11:01:30;28.83;;;6.78;;
15603;SDS011;7902;49.042;9.092;2023-09-12T11:03:56;28.60;;;5.45;;
15603;SDS011;7902;49.042;9.092;2023-09-12T11:06:28;47.15;;;6.35;;
15603;SDS011;7902;49.042;9.092;2023-09-12T11:11:44;26.77;;;6.35;;
15603;SDS011;7902;49.042;9.092;2023-09-12T11:14:14;26.52;;;5.78;;
15603;SDS011;7902;49.042;9.092;2023-09-12T11:16:42;28.58;;;6.80;;
15603;SDS011;7902;49.042;9.092;2023-09-12T11:19:16;29.83;;;6.25;;
15603;SDS011;7902;49.042;9.092;2023-09-12T11:21:52;29.75;;;5.60;;
15603;SDS011;7902;49.042;9.092;2023-09-12T11:24:19;33.33;;;6.30;;
15603;SDS011;7902;49.042;9.092;2023-09-12T11:26:59;27.48;;;6.13;;
15603;SDS011;7902;49.042;9.092;2023-09-12T11:29:30;36.92;;;5.80;;
15603;SDS011;7902;49.042;9.092;2023-09-12T11:32:04;26.25;;;5.95;;
15603;SDS011;7902;49.042;9.092;2023-09-12T11:34:38;37.47;;;6.07;;
15603;SDS011;7902;49.042;9.092;2023-09-12T11:37:10;35.85;;;6.43;;
15603;SDS011;7902;49.042;9.092;2023-09-12T11:39:47;36.67;;;6.38;;
15603;SDS011;7902;49.042;9.092;2023-09-12T11:42:15;28.80;;;5.80;;
15603;SDS011;7902;49.042;9.092;2023-09-12T11:44:41;30.00;;;6.47;;
15603;SDS011;7902;49.042;9.092;2023-09-12T11:47:10;26.42;;;6.47;;
15603;SDS011;7902;49.042;9.092;2023-09-12T11:49:40;29.80;;;7.05;;
15603;SDS011;7902;49.042;9.092;2023-09-12T11:52:11;31.52;;;5.88;;
15603;SDS011;7902;49.042;9.092;2023-09-12T11:54:39;33.20;;;5.82;;
15603;SDS011;7902;49.042;9.092;2023-09-12T11:57:07;25.60;;;6.10;;
15603;SDS011;7902;49.042;9.092;2023-09-12T11:59:36;36.65;;;6.50;;
15603;SDS011;7902;49.042;9.092;2023-09-12T12:02:07;32.42;;;6.40;;
15603;SDS011;7902;49.042;9.092;2023-09-12T12:04:34;26.55;;;5.15;;
15603;SDS011;7902;49.042;9.092;2023-09-12T12:07:01;28.17;;;5.80;;
15603;SDS011;7902;49.042;9.092;2023-09-12T12:09:28;28.25;;;6.10;;
15603;SDS011;7902;49.042;9.092;2023-09-12T12:11:54;35.80;;;6.53;;
15603;SDS011;7902;49.042;9.092;2023-09-12T12:14:21;26.67;;;5.50;;
15603;SDS011;7902;49.042;9.092;2023-09-12T12:16:47;31.17;;;5.78;;
15603;SDS011;7902;49.042;9.092;2023-09-12T12:19:13;31.00;;;5.07;;
15603;SDS011;7902;49.042;9.092;2023-09-12T12:21:39;30.63;;;5.10;;
15603;SDS011;7902;49.042;9.092;2023-09-12T12:24:07;29.30;;;5.22;;
15603;SDS011;7902;49.042;9.092;2023-09-12T12:26:36;23.80;;;5.38;;
15603;SDS011;7902;49.042;9.092;2023-09-12T12:29:05;22.67;;;4.43;;
15603;SDS011;7902;49.042;9.092;2023-09-12T12:31:31;28.90;;;5.03;;
15603;SDS011;7902;49.042;9.092;2023-09-12T12:33:57;28.35;;;5.05;;
15603;SDS011;7902;49.042;9.092;2023-09-12T12:36:23;25.85;;;5.78;;
15603;SDS011;7902;49.042;9.092;2023-09-12T12:38:49;28.92;;;5.47;;
15603;SDS011;7902;49.042;9.092;2023-09-12T12:41:37;28.13;;;4.90;;
15603;SDS011;7902;49.042;9.092;2023-09-12T12:44:02;33.38;;;5.40;;
15603;SDS011;7902;49.042;9.092;2023-09-12T12:46:29;28.13;;;5.13;;
15603;SDS011;7902;49.042;9.092;2023-09-12T12:48:55;22.98;;;4.65;;
15603;SDS011;7902;49.042;9.092;2023-09-12T12:51:22;28.70;;;4.95;;
15603;SDS011;7902;49.042;9.092;2023-09-12T12:53:53;26.00;;;4.85;;
15603;SDS011;7902;49.042;9.092;2023-09-12T12:56:22;24.77;;;4.32;;
15603;SDS011;7902;49.042;9.092;2023-09-12T12:58:50;36.28;;;5.25;;
15603;SDS011;7902;49.042;9.092;2023-09-12T13:01:17;22.05;;;4.32;;
15603;SDS011;7902;49.042;9.092;2023-09-12T13:03:44;23.38;;;4.80;;
15603;SDS011;7902;49.042;9.092;2023-09-12T13:06:11;29.17;;;4.97;;
15603;SDS011;7902;49.042;9.092;2023-09-12T13:08:41;24.90;;;5.15;;
15603;SDS011;7902;49.042;9.092;2023-09-12T13:11:11;27.45;;;4.45;;
15603;SDS011;7902;49.042;9.092;2023-09-12T13:13:38;30.52;;;5.50;;
15603;SDS011;7902;49.042;9.092;2023-09-12T13:16:05;25.40;;;5.03;;
15603;SDS011;7902;49.042;9.092;2023-09-12T13:18:35;29.40;;;4.68;;
15603;SDS011;7902;49.042;9.092;2023-09-12T13:21:02;24.40;;;5.43;;
15603;SDS011;7902;49.042;9.092;2023-09-12T13:23:28;32.20;;;4.70;;
15603;SDS011;7902;49.042;9.092;2023-09-12T13:25:55;27.80;;;4.60;;
15603;SDS011;7902;49.042;9.092;2023-09-12T13:28:22;25.98;;;4.38;;
15603;SDS011;7902;49.042;9.092;2023-09-12T13:30:52;24.45;;;4.43;;
15603;SDS011;7902;49.042;9.092;2023-09-12T13:33:18;20.60;;;4.20;;
15603;SDS011;7902;49.042;9.092;2023-09-12T13:35:44;26.17;;;4.25;;
15603;SDS011;7902;49.042;9.092;2023-09-12T13:38:11;20.27;;;4.18;;
15603;SDS011;7902;49.042;9.092;2023-09-12T13:40:45;22.20;;;3.95;;
15603;SDS011;7902;49.042;9.092;2023-09-12T13:43:14;21.40;;;4.05;;
15603;SDS011;7902;49.042;9.092;2023-09-12T13:45:40;23.10;;;3.92;;
15603;SDS011;7902;49.042;9.092;2023-09-12T13:48:06;23.65;;;4.32;;
15603;SDS011;7902;49.042;9.092;2023-09-12T13:50:33;20.77;;;4.05;;
15603;SDS011;7902;49.042;9.092;2023-09-12T13:53:00;21.33;;;3.88;;
15603;SDS011;7902;49.042;9.092;2023-09-12T13:55:35;25.30;;;4.03;;
15603;SDS011;7902;49.042;9.092;2023-09-12T13:58:02;24.88;;;3.70;;
15603;SDS011;7902;49.042;9.092;2023-09-12T14:00:29;19.10;;;3.53;;
15603;SDS011;7902;49.042;9.092;2023-09-12T14:02:56;27.80;;;4.65;;
15603;SDS011;7902;49.042;9.092;2023-09-12T14:05:23;18.17;;;3.22;;
15603;SDS011;7902;49.042;9.092;2023-09-12T14:07:50;19.92;;;3.78;;
15603;SDS011;7902;49.042;9.092;2023-09-12T14:10:16;23.23;;;4.28;;
15603;SDS011;7902;49.042;9.092;2023-09-12T14:12:42;25.02;;;3.65;;
15603;SDS011;7902;49.042;9.092;2023-09-12T14:15:10;24.52;;;3.45;;
15603;SDS011;7902;49.042;9.092;2023-09-12T14:17:37;27.50;;;3.83;;
15603;SDS011;7902;49.042;9.092;2023-09-12T14:20:03;17.70;;;3.10;;
15603;SDS011;7902;49.042;9.092;2023-09-12T14:22:30;21.15;;;3.22;;
15603;SDS011;7902;49.042;9.092;2023-09-12T14:24:55;18.08;;;3.58;;
15603;SDS011;7902;49.042;9.092;2023-09-12T14:27:21;22.15;;;3.83;;
15603;SDS011;7902;49.042;9.092;2023-09-12T14:29:47;20.70;;;3.55;;
15603;SDS011;7902;49.042;9.092;2023-09-12T14:32:15;22.33;;;4.07;;
15603;SDS011;7902;49.042;9.092;2023-09-12T14:34:41;20.75;;;4.10;;
15603;SDS011;7902;49.042;9.092;2023-09-12T14:37:07;30.13;;;3.90;;
15603;SDS011;7902;49.042;9.092;2023-09-12T14:39:33;20.45;;;4.22;;
15603;SDS011;7902;49.042;9.092;2023-09-12T14:41:59;23.50;;;3.78;;
15603;SDS011;7902;49.042;9.092;2023-09-12T14:44:27;24.35;;;3.85;;
15603;SDS011;7902;49.042;9.092;2023-09-12T14:46:53;38.40;;;4.75;;
15603;SDS011;7902;49.042;9.092;2023-09-12T14:49:20;31.60;;;3.88;;
15603;SDS011;7902;49.042;9.092;2023-09-12T14:51:46;18.55;;;3.72;;
15603;SDS011;7902;49.042;9.092;2023-09-12T14:54:12;23.20;;;4.18;;
15603;SDS011;7902;49.042;9.092;2023-09-12T14:56:39;23.92;;;3.83;;
15603;SDS011;7902;49.042;9.092;2023-09-12T14:59:07;19.67;;;3.45;;
15603;SDS011;7902;49.042;9.092;2023-09-12T15:01:34;29.08;;;4.47;;
15603;SDS011;7902;49.042;9.092;2023-09-12T15:04:00;23.63;;;3.90;;